createdAt,value
2019-02-26T00:01:21.622Z,53.97
2019-02-26T00:03:52.888Z,53.44
2019-02-26T00:06:25.373Z,53.18
2019-02-26T00:08:56.610Z,53.74
2019-02-26T00:11:29.041Z,53.74
2019-02-26T00:13:59.975Z,53.71
2019-02-26T00:16:35.243Z,53.71
2019-02-26T00:19:04.640Z,53.23
2019-02-26T00:21:34.808Z,52.91
2019-02-26T00:24:07.133Z,52.91
2019-02-26T00:26:38.449Z,52.98
2019-02-26T00:29:09.619Z,52.69
2019-02-26T00:31:40.098Z,52.33
2019-02-26T00:34:15.987Z,52.51
2019-02-26T00:36:45.792Z,52.76
2019-02-26T00:39:16.291Z,53.16
2019-02-26T00:41:49.361Z,52.93
2019-02-26T00:44:21.193Z,53.10
2019-02-26T00:46:53.432Z,53.23
2019-02-26T00:49:23.702Z,53.38
2019-02-26T00:51:55.528Z,53.06
2019-02-26T00:54:26.754Z,53.37
2019-02-26T00:57:01.077Z,53.42
2019-02-26T00:59:30.357Z,52.88
2019-02-26T01:02:00.814Z,52.64
2019-02-26T01:04:31.324Z,51.94
2019-02-26T01:07:03.682Z,51.94
2019-02-26T01:09:34.136Z,51.39
2019-02-26T01:12:06.515Z,51.59
2019-02-26T01:14:36.923Z,51.56
2019-02-26T01:17:08.203Z,51.67
2019-02-26T01:19:40.726Z,51.38
2019-02-26T01:22:11.769Z,51.31
2019-02-26T01:24:42.211Z,51.04
2019-02-26T01:27:12.673Z,50.91
2019-02-26T01:29:44.529Z,51.25
2019-02-26T01:32:16.079Z,51.13
2019-02-26T01:34:49.465Z,51.21
2019-02-26T01:37:19.621Z,51.49
2019-02-26T01:39:51.736Z,52.13
2019-02-26T01:42:24.760Z,52.79
2019-02-26T01:44:54.594Z,53.47
2019-02-26T01:47:26.292Z,53.63
2019-02-26T01:49:59.321Z,53.46
2019-02-26T01:52:29.453Z,53.61
2019-02-26T01:55:00.785Z,53.24
2019-02-26T01:57:32.085Z,53.07
2019-02-26T02:00:06.444Z,52.48
2019-02-26T02:02:34.734Z,51.94
2019-02-26T02:05:07.118Z,51.33
2019-02-26T02:07:37.735Z,50.63
2019-02-26T02:10:08.789Z,50.35
2019-02-26T02:12:41.396Z,50.14
2019-02-26T02:15:12.351Z,49.86
2019-02-26T02:17:44.214Z,49.70
2019-02-26T02:20:20.763Z,49.41
2019-02-26T02:22:48.536Z,49.58
2019-02-26T02:25:18.991Z,50.01
2019-02-26T02:27:51.889Z,50.17
2019-02-26T02:30:26.687Z,49.82
2019-02-26T02:32:56.859Z,50.25
2019-02-26T02:35:26.012Z,50.36
2019-02-26T02:37:59.563Z,49.98
2019-02-26T02:40:28.712Z,49.86
2019-02-26T02:43:04.143Z,49.19
2019-02-26T02:45:31.481Z,49.69
2019-02-26T02:48:03.248Z,49.87
2019-02-26T02:50:34.142Z,49.82
2019-02-26T02:53:04.627Z,50.08
2019-02-26T02:55:35.073Z,50.77
2019-02-26T02:58:05.667Z,51.00
2019-02-26T03:00:36.120Z,51.19
2019-02-26T03:03:06.623Z,52.09
2019-02-26T03:05:40.400Z,51.40
2019-02-26T03:08:10.763Z,51.05
2019-02-26T03:10:43.044Z,50.01
2019-02-26T03:13:14.415Z,49.36
2019-02-26T03:15:47.600Z,48.44
2019-02-26T03:18:18.007Z,48.44
2019-02-26T03:20:48.470Z,47.14
2019-02-26T03:23:21.230Z,47.39
2019-02-26T03:25:52.904Z,47.90
2019-02-26T03:28:23.909Z,47.90
2019-02-26T03:30:54.381Z,47.86
2019-02-26T03:33:24.896Z,47.86
2019-02-26T03:35:55.411Z,47.53
2019-02-26T03:38:26.990Z,47.19
2019-02-26T03:40:59.132Z,47.58
2019-02-26T03:43:31.413Z,48.17
2019-02-26T03:46:02.381Z,47.72
2019-02-26T03:48:32.864Z,47.72
2019-02-26T03:51:03.323Z,47.82
2019-02-26T03:53:36.177Z,48.22
2019-02-26T03:56:08.200Z,48.77
2019-02-26T03:58:38.468Z,48.67
2019-02-26T04:01:10.930Z,48.28
2019-02-26T04:03:42.530Z,48.30
2019-02-26T04:06:13.316Z,48.13
2019-02-26T04:08:46.170Z,49.25
2019-02-26T04:11:16.814Z,49.25
2019-02-26T04:13:49.487Z,48.42
2019-02-26T04:16:20.597Z,48.58
2019-02-26T04:18:51.964Z,48.58
2019-02-26T04:21:22.513Z,48.36
2019-02-26T04:23:53.479Z,47.82
2019-02-26T04:26:49.836Z,47.82
2019-02-26T04:29:49.219Z,48.53
2019-02-26T04:32:51.853Z,49.09
2019-02-26T04:35:47.861Z,48.43
2019-02-26T04:38:58.346Z,48.09
2019-02-26T04:41:52.491Z,48.75
2019-02-26T04:44:52.001Z,49.16
2019-02-26T04:47:27.544Z,48.77
2019-02-26T04:50:00.533Z,48.77
2019-02-26T04:52:32.293Z,48.64
2019-02-26T04:55:03.576Z,48.33
2019-02-26T04:57:34.373Z,48.33
2019-02-26T05:00:07.919Z,48.36
2019-02-26T05:02:37.995Z,48.28
2019-02-26T05:05:08.722Z,49.12
2019-02-26T05:07:42.297Z,49.12
2019-02-26T05:10:11.549Z,48.70
2019-02-26T05:12:42.057Z,48.78
2019-02-26T05:15:16.879Z,48.78
2019-02-26T05:17:44.816Z,49.81
2019-02-26T05:20:16.766Z,49.72
2019-02-26T05:22:47.471Z,49.72
2019-02-26T05:25:19.800Z,49.49
2019-02-26T05:27:50.993Z,49.49
2019-02-26T05:30:22.431Z,48.89
2019-02-26T05:32:54.865Z,48.89
2019-02-26T05:35:25.425Z,48.75
2019-02-26T05:37:58.325Z,48.66
2019-02-26T05:40:28.139Z,48.66
2019-02-26T05:42:59.314Z,48.72
2019-02-26T05:45:33.050Z,48.24
2019-02-26T05:48:03.140Z,48.27
2019-02-26T05:50:35.617Z,48.30
2019-02-26T05:53:07.572Z,47.51
2019-02-26T05:55:38.206Z,47.51
2019-02-26T05:58:10.063Z,47.10
2019-02-26T06:00:41.613Z,47.37
2019-02-26T06:03:12.828Z,47.66
2019-02-26T06:05:46.584Z,46.94
2019-02-26T06:08:16.576Z,47.16
2019-02-26T06:10:47.080Z,47.23
2019-02-26T06:13:17.593Z,46.91
2019-02-26T06:15:48.261Z,46.85
2019-02-26T06:18:20.932Z,46.06
2019-02-26T06:20:53.399Z,46.34
2019-02-26T06:23:25.304Z,45.43
2019-02-26T06:25:57.780Z,44.45
2019-02-26T06:28:27.574Z,44.45
2019-02-26T06:30:58.060Z,44.37
2019-02-26T06:33:31.888Z,44.48
2019-02-26T06:36:01.657Z,44.51
2019-02-26T06:38:34.963Z,44.31
2019-02-26T06:41:05.481Z,44.32
2019-02-26T06:43:39.527Z,44.01
2019-02-26T06:46:10.572Z,43.79
2019-02-26T06:48:40.365Z,43.46
2019-02-26T06:51:10.876Z,43.71
2019-02-26T06:53:45.022Z,43.34
2019-02-26T06:56:15.996Z,43.88
2019-02-26T06:58:47.425Z,43.47
2019-02-26T07:01:18.881Z,43.77
2019-02-26T07:03:49.427Z,43.85
2019-02-26T07:06:22.802Z,43.82
2019-02-26T07:08:53.485Z,43.01
2019-02-26T07:11:26.246Z,42.16
2019-02-26T07:13:58.325Z,42.59
2019-02-26T07:16:28.413Z,42.40
2019-02-26T07:18:59.014Z,41.88
2019-02-26T07:21:31.119Z,42.03
2019-02-26T07:24:03.422Z,42.03
2019-02-26T07:26:33.947Z,41.82
2019-02-26T07:29:05.838Z,42.25
2019-02-26T07:31:36.984Z,42.38
2019-02-26T07:34:09.224Z,43.27
2019-02-26T07:36:41.161Z,42.09
2019-02-26T07:39:12.952Z,41.25
2019-02-26T07:41:45.278Z,41.61
2019-02-26T07:44:18.740Z,42.34
2019-02-26T07:46:48.666Z,41.58
2019-02-26T07:49:19.984Z,42.16
2019-02-26T07:51:50.582Z,41.81
2019-02-26T07:54:21.103Z,42.00
2019-02-26T07:56:52.470Z,42.37
2019-02-26T07:59:27.680Z,42.50
2019-02-26T08:01:56.116Z,42.48
2019-02-26T08:04:26.708Z,42.33
2019-02-26T08:06:59.217Z,41.95
2019-02-26T08:09:29.583Z,40.37
2019-02-26T08:12:01.903Z,40.54
2019-02-26T08:14:32.323Z,40.28
2019-02-26T08:17:04.020Z,40.31
2019-02-26T08:19:37.609Z,40.87
2019-02-26T08:22:07.274Z,40.07
2019-02-26T08:24:38.949Z,40.75
2019-02-26T08:27:11.602Z,40.18
2019-02-26T08:29:41.870Z,40.64
2019-02-26T08:32:18.145Z,40.54
2019-02-26T08:34:46.317Z,39.94
2019-02-26T08:37:16.885Z,40.85
2019-02-26T08:39:47.410Z,40.33
2019-02-26T08:42:22.873Z,39.87
2019-02-26T08:44:54.261Z,40.19
2019-02-26T08:47:25.550Z,39.99
2019-02-26T08:49:56.013Z,39.28
2019-02-26T08:52:28.855Z,39.04
2019-02-26T08:55:01.476Z,40.08
2019-02-26T08:57:31.941Z,39.86
2019-02-26T09:00:02.533Z,39.55
2019-02-26T09:02:33.014Z,39.34
2019-02-26T09:05:04.991Z,38.77
2019-02-26T09:07:39.832Z,40.12
2019-02-26T09:10:17.904Z,39.44
2019-02-26T09:12:50.982Z,38.33
2019-02-26T09:15:20.692Z,39.40
2019-02-26T09:17:53.024Z,39.20
2019-02-26T09:20:26.817Z,38.78
2019-02-26T09:22:59.507Z,39.12
2019-02-26T09:25:31.477Z,38.36
2019-02-26T09:28:04.907Z,38.27
2019-02-26T09:30:35.829Z,38.66
2019-02-26T09:33:09.051Z,38.65
2019-02-26T09:35:40.890Z,39.26
2019-02-26T09:38:12.359Z,39.08
2019-02-26T09:40:45.173Z,39.17
2019-02-26T09:43:19.684Z,38.95
2019-02-26T09:45:52.791Z,38.82
2019-02-26T09:48:23.004Z,38.07
2019-02-26T09:50:53.519Z,37.34
2019-02-26T09:53:24.273Z,37.88
2019-02-26T09:55:54.822Z,37.62
2019-02-26T09:58:27.177Z,37.43
2019-02-26T10:01:17.577Z,37.90
2019-02-26T10:03:47.584Z,38.15
2019-02-26T10:06:19.327Z,36.99
2019-02-26T10:08:51.330Z,37.33
2019-02-26T10:11:23.163Z,37.03
2019-02-26T10:13:54.752Z,37.63
2019-02-26T10:16:31.358Z,37.06
2019-02-26T10:19:01.138Z,37.53
2019-02-26T10:21:34.773Z,36.98
2019-02-26T10:24:09.085Z,37.08
2019-02-26T10:26:41.463Z,37.06
2019-02-26T10:29:11.791Z,36.60
2019-02-26T10:31:42.279Z,37.54
2019-02-26T10:34:15.672Z,36.04
2019-02-26T10:36:47.205Z,36.96
2019-02-26T10:39:20.691Z,36.43
2019-02-26T10:41:50.891Z,36.13
2019-02-26T10:44:23.664Z,36.14
2019-02-26T10:46:54.129Z,36.14
2019-02-26T10:49:24.693Z,37.19
2019-02-26T10:51:57.746Z,36.29
2019-02-26T10:54:31.484Z,36.14
2019-02-26T10:57:04.554Z,36.12
2019-02-26T10:59:33.568Z,35.55
2019-02-26T11:02:04.122Z,35.54
2019-02-26T11:04:41.005Z,35.48
2019-02-26T11:07:11.519Z,36.05
2019-02-26T11:09:44.817Z,36.53
2019-02-26T11:12:15.463Z,35.65
2019-02-26T11:14:46.001Z,35.36
2019-02-26T11:17:17.873Z,35.25
2019-02-26T11:19:48.713Z,35.10
2019-02-26T11:22:21.311Z,35.09
2019-02-26T11:24:53.384Z,34.83
2019-02-26T11:27:23.644Z,35.64
2019-02-26T11:29:54.661Z,35.55
2019-02-26T11:32:27.811Z,35.18
2019-02-26T11:35:01.815Z,35.15
2019-02-26T11:37:32.090Z,34.52
2019-02-26T11:40:03.637Z,33.89
2019-02-26T11:42:34.844Z,34.41
2019-02-26T11:45:08.869Z,33.90
2019-02-26T11:47:39.164Z,33.29
2019-02-26T11:50:12.998Z,33.67
2019-02-26T11:52:43.778Z,32.82
2019-02-26T11:55:14.726Z,32.84
2019-02-26T11:57:47.387Z,32.50
2019-02-26T12:00:31.338Z,32.09
2019-02-26T12:02:59.965Z,32.89
2019-02-26T12:05:33.542Z,33.40
2019-02-26T12:08:02.875Z,32.90
2019-02-26T12:10:37.208Z,33.71
2019-02-26T12:13:07.522Z,33.18
2019-02-26T12:15:41.511Z,34.04
2019-02-26T12:18:12.662Z,33.91
2019-02-26T12:20:43.592Z,33.68
2019-02-26T12:23:16.913Z,33.60
2019-02-26T12:25:49.919Z,33.08
2019-02-26T12:28:20.507Z,33.00
2019-02-26T12:30:51.097Z,33.30
2019-02-26T12:33:21.652Z,33.25
2019-02-26T12:35:52.117Z,33.81
2019-02-26T12:38:22.690Z,33.18
2019-02-26T12:40:53.518Z,33.55
2019-02-26T12:43:26.950Z,33.83
2019-02-26T12:46:01.386Z,33.97
2019-02-26T12:48:36.543Z,34.01
2019-02-26T12:51:07.516Z,33.65
2019-02-26T12:56:24.176Z,32.39
2019-02-26T12:58:56.503Z,32.34
2019-02-26T13:01:27.014Z,31.94
2019-02-26T13:03:57.504Z,32.17
2019-02-26T13:06:27.966Z,31.78
2019-02-26T13:08:58.431Z,32.18
2019-02-26T13:11:30.897Z,32.22
2019-02-26T13:14:02.511Z,31.96
2019-02-26T13:16:33.036Z,32.10
2019-02-26T13:19:05.522Z,31.61
2019-02-26T13:21:36.023Z,31.77
2019-02-26T13:24:12.386Z,31.20
2019-02-26T13:26:41.826Z,30.95
2019-02-26T13:29:11.164Z,31.35
2019-02-26T13:31:50.207Z,31.31
2019-02-26T13:34:15.216Z,31.15
2019-02-26T13:36:48.992Z,31.19
2019-02-26T13:39:25.446Z,31.29
2019-02-26T13:41:54.365Z,31.69
2019-02-26T13:44:22.961Z,32.23
2019-02-26T13:46:53.545Z,32.69
2019-02-26T13:49:24.639Z,32.64
2019-02-26T13:51:55.165Z,32.75
2019-02-26T13:54:25.696Z,32.25
2019-02-26T13:56:56.205Z,32.00
2019-02-26T13:59:29.220Z,32.81
2019-02-26T14:01:59.746Z,32.44
2019-02-26T14:04:30.260Z,32.52
2019-02-26T14:07:00.784Z,33.05
2019-02-26T14:09:31.241Z,32.82
2019-02-26T14:12:04.370Z,33.04
2019-02-26T14:14:34.055Z,33.39
2019-02-26T14:17:04.628Z,33.41
2019-02-26T14:19:35.272Z,32.84
2019-02-26T14:22:05.781Z,32.88
2019-02-26T14:24:36.867Z,32.99
2019-02-26T14:27:07.399Z,32.19
2019-02-26T14:29:37.991Z,32.47
2019-02-26T14:32:08.546Z,32.30
2019-02-26T14:34:39.237Z,32.63
2019-02-26T14:37:09.698Z,33.06
2019-02-26T14:39:40.261Z,32.79
2019-02-26T14:42:10.750Z,32.55
2019-02-26T14:44:41.296Z,32.68
2019-02-26T14:47:11.958Z,33.09
2019-02-26T14:49:42.430Z,32.44
2019-02-26T14:52:12.950Z,33.05
2019-02-26T14:54:43.428Z,32.90
2019-02-26T14:57:14.279Z,33.75
2019-02-26T14:59:44.804Z,34.39
2019-02-26T15:02:15.326Z,34.28
2019-02-26T15:04:45.863Z,34.34
2019-02-26T15:07:16.500Z,34.56
2019-02-26T15:09:46.956Z,34.56
2019-02-26T15:12:17.495Z,34.41
2019-02-26T15:14:48.859Z,34.81
2019-02-26T15:17:19.357Z,34.71
2019-02-26T15:19:53.157Z,34.08
2019-02-26T15:22:22.452Z,34.44
2019-02-26T15:24:54.769Z,33.72
2019-02-26T15:27:35.890Z,34.05
2019-02-26T15:30:13.373Z,33.84
2019-02-26T15:32:46.962Z,33.72
2019-02-26T15:35:26.927Z,33.80
2019-02-26T15:38:08.178Z,33.69
2019-02-26T15:40:41.740Z,33.10
2019-02-26T15:43:12.254Z,33.01
2019-02-26T15:45:51.604Z,33.81
2019-02-26T15:48:16.805Z,33.75
2019-02-26T15:50:47.340Z,34.17
2019-02-26T15:53:17.815Z,33.85
2019-02-26T15:55:48.266Z,33.45
2019-02-26T15:58:18.860Z,34.27
2019-02-26T16:00:49.326Z,34.02
2019-02-26T16:03:21.560Z,34.44
2019-02-26T16:05:53.993Z,34.34
2019-02-26T16:08:34.424Z,34.84
2019-02-26T16:10:59.641Z,35.11
2019-02-26T16:13:30.155Z,35.35
2019-02-26T16:16:00.858Z,35.16
2019-02-26T16:18:31.322Z,35.05
2019-02-26T16:21:01.953Z,34.65
2019-02-26T16:23:32.473Z,34.45
2019-02-26T16:26:02.937Z,34.44
2019-02-26T16:28:33.478Z,34.33
2019-02-26T16:31:04.601Z,34.06
2019-02-26T16:33:35.403Z,33.76
2019-02-26T16:36:05.986Z,34.26
2019-02-26T16:38:36.603Z,35.13
2019-02-26T16:41:07.116Z,34.96
2019-02-26T16:43:37.630Z,36.06
2019-02-26T16:46:09.066Z,35.40
2019-02-26T16:48:39.684Z,35.95
2019-02-26T16:51:10.285Z,35.84
2019-02-26T16:53:40.741Z,36.12
2019-02-26T16:56:11.249Z,35.81
2019-02-26T16:58:41.710Z,35.91
2019-02-26T17:01:14.658Z,36.46
2019-02-26T17:03:45.126Z,36.56
2019-02-26T17:06:15.654Z,36.29
2019-02-26T17:08:47.327Z,36.51
2019-02-26T17:11:18.273Z,36.38
2019-02-26T17:13:48.787Z,36.57
2019-02-26T17:16:19.448Z,35.90
2019-02-26T17:18:49.969Z,35.56
2019-02-26T17:21:20.487Z,35.75
2019-02-26T17:23:51.174Z,35.37
2019-02-26T17:26:23.918Z,35.35
2019-02-26T17:28:54.435Z,35.15
2019-02-26T17:31:24.984Z,35.33
2019-02-26T17:33:55.774Z,35.29
2019-02-26T17:36:26.289Z,35.29
2019-02-26T17:38:56.748Z,35.39
2019-02-26T17:41:27.211Z,35.54
2019-02-26T17:43:59.488Z,35.79
2019-02-26T17:46:29.870Z,35.44
2019-02-26T17:49:02.683Z,35.36
2019-02-26T17:51:32.649Z,36.30
2019-02-26T17:54:04.030Z,35.77
2019-02-26T17:56:35.118Z,36.36
2019-02-26T17:59:10.996Z,36.76
2019-02-26T18:01:47.090Z,36.95
2019-02-26T18:04:17.523Z,37.15
2019-02-26T18:06:48.062Z,37.74
2019-02-26T18:09:18.612Z,37.54
2019-02-26T18:11:49.131Z,38.13
2019-02-26T18:14:22.346Z,38.13
2019-02-26T18:16:52.859Z,37.88
2019-02-26T18:19:26.176Z,37.90
2019-02-26T18:21:56.687Z,38.42
2019-02-26T18:24:27.216Z,38.53
2019-02-26T18:26:57.677Z,38.34
2019-02-26T18:29:28.187Z,38.30
2019-02-26T18:31:58.651Z,38.21
2019-02-26T18:34:29.125Z,37.81
2019-02-26T18:36:59.582Z,37.90
2019-02-26T18:39:30.084Z,38.13
2019-02-26T18:42:00.566Z,38.34
2019-02-26T18:44:31.022Z,39.02
2019-02-26T18:47:01.576Z,38.93
2019-02-26T18:49:32.082Z,38.93
2019-02-26T18:52:02.540Z,39.37
2019-02-26T18:54:32.988Z,39.33
2019-02-26T18:57:03.500Z,39.76
2019-02-26T18:59:33.956Z,39.43
2019-02-26T19:02:04.424Z,39.86
2019-02-26T19:04:34.941Z,40.03
2019-02-26T19:07:05.405Z,40.09
2019-02-26T19:09:35.928Z,40.74
2019-02-26T19:12:08.513Z,40.71
2019-02-26T19:14:42.039Z,40.62
2019-02-26T19:17:11.178Z,41.12
2019-02-26T19:19:42.026Z,41.23
2019-02-26T19:22:13.029Z,42.11
2019-02-26T19:24:43.507Z,41.82
2019-02-26T19:27:14.022Z,41.93
2019-02-26T19:29:47.164Z,41.90
2019-02-26T19:32:17.680Z,41.06
2019-02-26T19:34:48.192Z,41.40
2019-02-26T19:37:19.110Z,41.46
2019-02-26T19:39:50.875Z,41.40
2019-02-26T19:42:21.428Z,41.87
2019-02-26T19:44:51.877Z,41.89
2019-02-26T19:47:22.773Z,41.76
2019-02-26T19:49:53.749Z,41.32
2019-02-26T19:52:24.196Z,41.07
2019-02-26T19:54:54.732Z,41.01
2019-02-26T19:57:27.578Z,40.83
2019-02-26T19:59:57.354Z,39.99
2019-02-26T20:02:31.343Z,40.49
2019-02-26T20:05:02.328Z,41.33
2019-02-26T20:07:33.389Z,41.66
2019-02-26T20:10:06.020Z,41.07
2019-02-26T20:12:36.587Z,40.79
2019-02-26T20:15:09.463Z,41.07
2019-02-26T20:17:39.982Z,40.93
2019-02-26T20:20:11.708Z,41.01
2019-02-26T20:22:42.262Z,41.01
2019-02-26T20:25:14.586Z,41.24
2019-02-26T20:27:45.289Z,41.44
2019-02-26T20:30:17.663Z,41.48
2019-02-26T20:32:48.273Z,41.74
2019-02-26T20:35:18.730Z,41.40
2019-02-26T20:37:49.204Z,41.95
2019-02-26T20:40:20.099Z,42.22
2019-02-26T20:42:50.610Z,42.25
2019-02-26T20:45:22.660Z,42.38
2019-02-26T20:47:53.288Z,42.36
2019-02-26T20:50:24.076Z,42.26
2019-02-26T20:52:54.554Z,42.25
2019-02-26T20:55:25.019Z,42.39
2019-02-26T20:57:55.621Z,42.31
2019-02-26T21:00:26.096Z,42.81
2019-02-26T21:02:56.552Z,43.00
2019-02-26T21:05:27.056Z,43.00
2019-02-26T21:07:58.779Z,42.83
2019-02-26T21:10:29.480Z,43.52
2019-02-26T21:13:01.825Z,42.97
2019-02-26T21:15:32.204Z,43.01
2019-02-26T21:18:02.725Z,43.18
2019-02-26T21:20:33.187Z,42.82
2019-02-26T21:23:03.711Z,43.53
2019-02-26T21:25:34.181Z,43.51
2019-02-26T21:28:04.764Z,43.55
2019-02-26T21:30:35.270Z,43.91
2019-02-26T21:33:05.885Z,43.78
2019-02-26T21:35:39.044Z,43.85
2019-02-26T21:38:09.558Z,44.50
2019-02-26T21:40:40.016Z,44.25
2019-02-26T21:43:10.537Z,44.40
2019-02-26T21:45:41.000Z,45.10
2019-02-26T21:48:11.874Z,45.17
2019-02-26T21:50:42.336Z,44.61
2019-02-26T21:53:15.951Z,44.83
2019-02-26T21:55:45.193Z,44.88
2019-02-26T21:58:15.645Z,44.56
2019-02-26T22:00:46.146Z,44.66
2019-02-26T22:03:16.604Z,44.99
2019-02-26T22:05:47.173Z,44.70
2019-02-26T22:08:17.686Z,44.90
2019-02-26T22:10:48.141Z,44.94
2019-02-26T22:13:18.654Z,44.94
2019-02-26T22:15:49.164Z,44.58
2019-02-26T22:18:19.611Z,44.95
2019-02-26T22:20:50.124Z,44.54
2019-02-26T22:23:20.593Z,44.76
2019-02-26T22:25:52.648Z,44.65
2019-02-26T22:28:23.266Z,44.52
2019-02-26T22:30:55.910Z,44.96
2019-02-26T22:33:25.932Z,44.88
2019-02-26T22:35:56.960Z,44.72
2019-02-26T22:38:28.653Z,44.58
2019-02-26T22:40:59.956Z,44.58
2019-02-26T22:43:31.622Z,44.58
2019-02-26T22:46:02.131Z,44.45
2019-02-26T22:48:32.591Z,44.57
2019-02-26T22:51:03.109Z,44.91
2019-02-26T22:53:36.363Z,45.17
2019-02-26T22:56:05.882Z,45.12
2019-02-26T22:58:36.385Z,45.14
2019-02-26T23:01:45.113Z,45.20
2019-02-26T23:04:19.256Z,44.93
2019-02-26T23:06:48.648Z,45.03
2019-02-26T23:09:21.490Z,44.66
2019-02-26T23:11:52.039Z,44.50
2019-02-26T23:14:23.177Z,44.41
2019-02-26T23:16:53.784Z,44.42
2019-02-26T23:19:24.900Z,44.41
2019-02-26T23:21:55.416Z,44.06
2019-02-26T23:24:28.009Z,44.15
2019-02-26T23:26:58.198Z,44.33
2019-02-26T23:29:28.663Z,44.29
2019-02-26T23:31:59.365Z,44.88
2019-02-26T23:34:29.931Z,45.16
2019-02-26T23:37:00.953Z,45.43
2019-02-26T23:39:32.076Z,45.13
2019-02-26T23:42:05.840Z,45.17
2019-02-26T23:44:34.876Z,45.20
2019-02-26T23:47:05.436Z,44.98
2019-02-26T23:49:36.001Z,44.98
2019-02-26T23:52:06.456Z,45.01
2019-02-26T23:54:39.809Z,44.50
2019-02-26T23:57:09.177Z,44.46
2019-02-26T23:59:39.630Z,44.49
